Station: Miles  

  Atmospheric Gas Attenuation - ITU Rec 676-11   ----------------- dB/100km -----------------
Date Time Temp RH % AH g/m3 Dew Point Wind Direction Speed kph Gust kph Barometer mB Rainfall Since 9am 24GHz 47GHz 76GHz 122GHz 134GHz 241GHz
01/09 19:30 16 64 8.72 9.2 0 0 1024.2 0 19.7 25.9 39.7 104.0 98.1 337.6
01/09 19:20 16.3 59 8.19 8.3 0 0 1024.5 0 18.6 25.0 37.5 98.1 91.0 312.6
01/09 19:10 16.6 59 8.33 8.6 0 0 1024.4 0 18.9 25.1 37.9 99.2 92.4 317.6
01/09 19:00 16.8 61 8.72 9.2 0 0 1024 0 19.7 25.6 39.3 102.9 97.1 334.1
01/09 18:50 17.1 58 8.44 8.8 0 0 1024.3 0 19.1 25.1 38.0 99.7 93.2 320.5
01/09 18:40 17.6 54 8.1 8.2 2 6 1024.1 0 18.3 24.4 36.5 95.6 88.3 303.6
01/09 18:30 18.1 54 8.34 8.7 4 7 1023.6 0 18.8 24.7 37.2 97.3 90.7 312.0
01/09 18:20 18.6 52 8.28 8.6 4 7 1024 0 18.7 24.4 36.7 96.2 89.4 307.5
01/09 18:10 18.9 51 8.26 8.6 2 7 1023.9 0 18.6 24.3 36.5 95.6 88.8 305.5
01/09 18:00 19.7 48 8.15 8.4 2 6 1023.5 0 18.4 23.9 35.7 93.5 86.6 297.7
01/09 17:50 20.7 44 7.92 8 6 9 1023.7 0 17.8 23.4 34.5 90.2 82.8 284.5
01/09 17:40 21.4 41 7.69 7.6 7 11 1023.8 0 17.3 22.8 33.4 87.3 79.4 272.7
01/09 17:30 21.9 40 7.72 7.7 7 11 1023.5 0 17.4 22.8 33.3 87.0 79.2 272.2
01/09 17:20 22.2 40 7.85 8 7 11 1024 0 17.6 22.9 33.6 87.9 80.5 276.5
01/09 17:10 22.4 39 7.74 7.8 9 17 1024 0 17.4 22.7 33.2 86.7 79.0 271.4
01/09 17:00 22.6 40 8.03 8.3 9 13 1023.6 0 18.0 23.0 34.1 89.1 82.1 282.4
01/09 16:50 22.6 40 8.03 8.3 7 13 1023.9 0 18.0 23.0 34.1 89.2 82.1 282.5
01/09 16:40 22.4 40 7.94 8.1 9 13 1023.9 0 17.8 23.0 33.9 88.5 81.3 279.5
01/09 16:30 22.5 40 7.99 8.2 9 15 1023.5 0 17.9 23.0 34.0 88.9 81.7 281.1
01/09 16:20 22.7 41 8.28 8.8 9 15 1023.8 0 18.5 23.4 34.9 91.4 84.9 292.3
01/09 16:10 22.6 39 7.83 8 9 15 1023.8 0 17.6 22.8 33.4 87.3 79.8 274.3
01/09 16:00 23 39 8.02 8.3 11 20 1023.6 0 17.9 22.9 33.9 88.6 81.6 280.6
01/09 15:50 24 37 8.05 8.4 13 19 1023.8 0 18.0 22.7 33.6 87.8 80.9 278.4
01/09 15:40 24.1 37 8.1 8.5 11 19 1023.8 0 18.1 22.8 33.7 88.2 81.4 280.1
01/09 15:30 23.8 37 7.96 8.2 11 20 1023.5 0 17.8 22.6 33.3 87.2 80.1 275.5
01/09 15:20 24 37 8.05 8.4 11 20 1023.8 0 18.0 22.7 33.6 87.8 80.9 278.4
01/09 15:10 24.4 36 8.01 8.4 7 13 1024 0 17.9 22.6 33.3 87.1 80.1 275.5
01/09 15:00 23.8 38 8.17 8.6 9 17 1023.7 0 18.2 22.9 34.1 89.2 82.5 283.9
01/09 14:50 24 39 8.48 9.2 7 17 1024.1 0 18.8 23.3 35.1 91.9 85.9 295.8
01/09 14:40 23.2 39 8.11 8.5 11 19 1024.2 0 18.1 23.0 34.1 89.3 82.5 283.7
01/09 14:30 23.1 40 8.27 8.8 13 20 1023.9 0 18.4 23.3 34.7 90.9 84.4 290.4
01/09 14:20 23.4 41 8.62 9.4 13 20 1024.3 0 19.2 23.7 35.8 93.9 88.2 303.7
01/09 14:10 23.3 37 7.74 7.8 11 22 1024.5 0 17.3 22.5 32.8 85.8 78.1 268.6
01/09 14:00 23.7 36 7.7 7.8 9 13 1024.3 0 17.2 22.3 32.5 85.0 77.3 265.6
01/09 13:50 23.4 36 7.57 7.5 11 15 1024.7 0 17.0 22.2 32.2 84.1 76.1 261.5
01/09 13:40 23.8 35 7.53 7.4 11 17 1024.8 0 16.9 22.1 31.9 83.4 75.3 258.7
01/09 13:30 24.2 34 7.48 7.4 11 19 1024.7 0 16.8 21.9 31.6 82.5 74.4 255.5
01/09 13:20 25.3 32 7.49 7.4 13 22 1025.2 0 16.7 21.7 31.2 81.6 73.5 252.6
01/09 13:10 23.2 36 7.48 7.3 9 15 1025.4 0 16.8 22.2 32.0 83.6 75.4 258.8
01/09 13:00 23.7 36 7.7 7.8 13 19 1025.4 0 17.2 22.4 32.6 85.1 77.4 265.9
01/09 12:50 23.7 35 7.49 7.3 13 28 1025.8 0 16.8 22.1 31.9 83.2 75.0 257.7
01/09 12:40 23 37 7.6 7.5 6 11 1025.9 0 17.1 22.4 32.5 84.9 76.9 264.3
01/09 12:30 22.7 39 7.88 8 4 9 1026 0 17.7 22.9 33.6 87.9 80.4 276.5
01/09 12:20 22.6 39 7.83 8 4 13 1026.6 0 17.6 22.8 33.5 87.6 80.0 275.0
01/09 12:10 22.2 42 8.25 8.7 6 11 1026.7 0 18.4 23.6 35.1 92.0 85.3 293.5
01/09 12:00 21.9 42 8.1 8.4 7 15 1026.5 0 18.1 23.4 34.7 90.8 83.8 288.4
01/09 11:50 22.3 42 8.29 8.8 9 17 1027.1 0 18.5 23.6 35.3 92.3 85.7 294.9
01/09 11:40 22.4 38 7.55 7.4 13 20 1027.4 0 17.0 22.5 32.6 85.2 77.0 264.5
01/09 11:30 23.4 39 8.2 8.7 13 20 1027.3 0 18.3 23.2 34.5 90.2 83.5 287.3
01/09 11:20 23.8 41 8.82 9.8 11 22 1027.8 0 19.6 24.0 36.5 95.7 90.3 311.3
01/09 11:10 23 43 8.84 9.8 9 17 1028.1 0 19.6 24.2 37.0 96.8 91.5 315.3
01/09 11:00 23 44 9.04 10.1 13 20 1028 0 20.1 24.5 37.7 98.7 93.9 323.6
01/09 10:50 22.3 46 9.08 10.1 9 20 1028.6 0 20.2 24.8 38.2 100.0 95.2 328.3
01/09 10:40 22.6 46 9.24 10.4 15 26 1028.8 0 20.5 25.0 38.6 101.3 96.8 333.9
01/09 10:30 21.9 47 9.07 10.1 15 24 1028.7 0 20.2 24.9 38.3 100.5 95.6 329.5
01/09 10:20 21.9 47 9.07 10.1 13 22 1029 0 20.2 24.9 38.4 100.5 95.6 329.6
01/09 10:10 21.4 51 9.56 10.9 13 24 1029.2 0 21.2 25.8 40.4 106.0 102.3 352.9
01/09 10:00 21.6 52 9.86 11.3 13 20 1029 0 21.8 26.2 41.5 108.8 105.8 365.1
01/09 09:50 20.5 52 9.25 10.3 13 22 1029.4 0 20.6 25.6 39.7 104.1 99.6 343.3
01/09 09:40 20.7 53 9.54 10.8 17 26 1029.4 0 21.2 26.0 40.7 106.8 103.0 355.2
01/09 09:30 20.6 53 9.48 10.7 13 24 1029.5 0 21.1 25.9 40.5 106.3 102.3 353.0
01/09 09:20 20.2 56 9.79 11.1 17 24 1029.4 0 21.8 26.5 41.9 110.0 106.8 368.5
01/09 09:10 19.6 57 9.62 10.9 15 26 1029.2 0 21.4 26.4 41.6 109.1 105.4 363.6
01/09 09:00 19.5 58 9.73 11 15 24 1029.6 0 21.7 26.6 42.1 110.4 107.0 369.1
01/09 08:50 19 61 9.94 11.3 17 24 1029.5 0 22.1 27.1 43.2 113.3 110.4 381.0
01/09 08:40 19 62 10.1 11.6 15 24 1029.6 0 22.5 27.4 43.8 115.0 112.5 388.3
01/09 08:30 18.3 64 10.01 11.4 13 20 1029.8 0 22.3 27.5 43.8 115.1 112.3 387.7
01/09 08:20 17.8 65 9.86 11.1 11 20 1029.6 0 22.0 27.4 43.5 114.2 111.1 383.1
01/09 08:10 17 68 9.84 11.1 6 15 1029.5 0 22.0 27.6 43.9 115.1 111.9 386.1
01/09 08:00 15.9 71 9.61 10.7 2 7 1029.8 0 21.6 27.5 43.5 114.2 110.5 380.8
01/09 07:50 14.7 73 9.19 9.9 2 7 1029.6 0 20.8 27.2 42.5 111.3 106.5 366.6
01/09 07:40 13.8 76 9.06 9.6 4 7 1029.6 0 20.6 27.3 42.4 111.2 105.9 364.7
01/09 07:30 12.4 82 8.96 9.4 2 6 1029.7 0 20.4 27.5 42.8 112.1 106.5 366.5
01/09 07:20 11.3 84 8.57 8.7 4 7 1029.2 0 19.6 27.2 41.7 109.2 102.6 352.6
01/09 07:10 10.1 91 8.61 8.7 6 7 1029.1 0 19.8 27.6 42.5 111.4 104.7 360.0
01/09 07:00 9 92 8.11 7.8 2 6 1029.2 0 18.8 27.1 40.9 107.2 99.2 340.4
01/09 06:50 8.7 94 8.13 7.8 0 0 1028.8 0 18.8 27.2 41.2 107.8 99.8 342.6
01/09 06:40 8 93 7.69 6.9 0 0 1028.7 0 17.9 26.7 39.7 103.8 94.5 324.0
01/09 06:30 8 93 7.69 6.9 0 0 1028.9 0 17.9 26.7 39.7 103.8 94.5 324.0
01/09 06:20 7.9 92 7.56 6.7 0 0 1028.4 0 17.6 26.5 39.1 102.4 92.8 317.9
01/09 06:10 8 91 7.53 6.6 0 0 1028.3 0 17.6 26.4 39.0 101.9 92.3 316.0
01/09 06:00 8.2 91 7.62 6.8 0 0 1028.5 0 17.7 26.5 39.2 102.7 93.3 319.7
01/09 05:50 8.4 92 7.81 7.2 0 0 1028 0 18.1 26.7 39.9 104.5 95.7 328.0
01/09 05:40 8.6 92 7.91 7.4 0 0 1028 0 18.3 26.9 40.2 105.4 96.8 332.0
01/09 05:30 8.8 91 7.92 7.4 0 0 1028.2 0 18.4 26.8 40.2 105.2 96.7 331.7
01/09 05:20 9 91 8.03 7.6 0 0 1027.9 0 18.6 26.9 40.5 106.2 98.0 336.1
01/09 05:10 9.2 90 8.04 7.6 0 0 1027.7 0 18.6 26.9 40.5 106.0 97.8 335.7
01/09 05:00 9.5 90 8.19 7.9 0 0 1028 0 18.9 27.1 41.0 107.3 99.6 341.8
01/09 04:50 9.6 87 7.97 7.5 0 6 1027.6 0 18.4 26.6 40.0 104.7 96.3 330.6
01/09 04:40 9.8 86 7.98 7.6 0 6 1027.6 0 18.4 26.6 39.9 104.5 96.2 330.2
01/09 04:30 9.9 86 8.03 7.7 0 4 1027.9 0 18.5 26.7 40.1 105.0 96.8 332.3
01/09 04:20 10.1 85 8.04 7.7 4 6 1027.5 0 18.6 26.6 40.0 104.8 96.7 331.8
01/09 04:10 10.2 84 8 7.6 2 6 1027.4 0 18.5 26.5 39.8 104.2 96.0 329.4
01/09 04:00 10.3 83 7.95 7.5 0 0 1027.7 0 18.4 26.4 39.5 103.5 95.2 326.7
01/09 03:50 10.5 80 7.76 7.2 0 4 1027.6 0 17.9 26.0 38.7 101.1 92.4 316.8
01/09 03:40 10.9 78 7.76 7.2 4 6 1027.5 0 17.9 25.9 38.5 100.6 91.9 315.1
01/09 03:30 11.7 74 7.74 7.2 4 6 1027.8 0 17.8 25.7 38.0 99.4 90.7 311.1
01/09 03:20 12.3 73 7.93 7.6 7 11 1027.5 0 18.2 25.8 38.5 100.7 92.5 317.5
01/09 03:10 12.8 73 8.18 8.1 7 9 1027.5 0 18.7 26.0 39.2 102.7 95.2 327.1
01/09 03:00 12.4 74 8.09 7.9 6 9 1028 0 18.6 26.0 39.1 102.3 94.6 324.7

Last Refresh: 01-Sep-2026 19:16:33

Bureau of Meteorology